Time;durP1;ratioP1;P1;durP2;ratioP2;P2;SDS_P1;SDS_P2;PMS_P1;PMS_P2;Temp;Humidity;BMP_temperature;BMP_pressure;BME280_temperature;BME280_humidity;BME280_pressure;Samples;Min_cycle;Max_cycle;Signal;HPM_P1;HPM_P2
2023/05/13 00:00:16;;;;;;;10.70;9.55;;;;;;;;;;5069309;28;20080;-68
2023/05/13 00:02:43;;;;;;;13.10;10.18;;;;;;;;;;5048625;28;20110;-68
2023/05/13 00:05:09;;;;;;;11.63;9.93;;;;;;;;;;5070952;28;20060;-68
2023/05/13 00:07:36;;;;;;;11.35;10.20;;;;;;;;;;5045324;28;20067;-68
2023/05/13 00:10:02;;;;;;;12.18;10.10;;;;;;;;;;5072200;28;20381;-68
2023/05/13 00:12:30;;;;;;;11.30;9.70;;;;;;;;;;5068956;28;20048;-68
2023/05/13 00:14:56;;;;;;;11.68;9.82;;;;;;;;;;5072209;28;20102;-68
2023/05/13 00:17:22;;;;;;;11.90;10.35;;;;;;;;;;5067506;28;20488;-69
2023/05/13 00:19:49;;;;;;;12.85;10.75;;;;;;;;;;5072118;28;20179;-68
2023/05/13 00:22:15;;;;;;;12.40;11.10;;;;;;;;;;5065328;28;20144;-68
2023/05/13 00:24:41;;;;;;;12.85;10.75;;;;;;;;;;5071741;28;20056;-68
2023/05/13 00:27:09;;;;;;;11.70;10.50;;;;;;;;;;5066412;28;20044;-68
2023/05/13 00:29:35;;;;;;;11.88;10.65;;;;;;;;;;5070802;28;20056;-69
2023/05/13 00:32:02;;;;;;;12.35;10.95;;;;;;;;;;5062202;28;20083;-68
2023/05/13 00:34:28;;;;;;;12.52;10.35;;;;;;;;;;5071824;28;20047;-68
2023/05/13 00:36:54;;;;;;;11.98;10.32;;;;;;;;;;5065434;28;20576;-68
2023/05/13 00:39:21;;;;;;;11.65;10.45;;;;;;;;;;5071951;28;20079;-68
2023/05/13 00:41:48;;;;;;;10.50;9.50;;;;;;;;;;5064541;28;20140;-68
2023/05/13 00:44:14;;;;;;;12.70;11.15;;;;;;;;;;5071411;28;20403;-68
2023/05/13 00:46:41;;;;;;;11.85;10.40;;;;;;;;;;5061784;28;20074;-68
2023/05/13 00:49:07;;;;;;;12.73;11.32;;;;;;;;;;5071605;28;20140;-69
2023/05/13 00:51:35;;;;;;;12.55;11.10;;;;;;;;;;5055533;28;20049;-69
2023/05/13 00:54:03;;;;;;;12.10;10.98;;;;;;;;;;5071124;28;20491;-68
2023/05/13 00:56:29;;;;;;;11.75;10.55;;;;;;;;;;5053698;28;20040;-69
2023/05/13 00:58:55;;;;;;;12.73;10.98;;;;;;;;;;5071748;28;20405;-69
2023/05/13 01:01:40;;;;;;;11.40;10.23;;;;;;;;;;5049848;28;20290;-68
2023/05/13 01:04:10;;;;;;;11.65;10.25;;;;;;;;;;5070686;28;20080;-69
2023/05/13 01:06:44;;;;;;;10.95;9.80;;;;;;;;;;5059172;28;20044;-69
2023/05/13 01:09:13;;;;;;;10.63;9.07;;;;;;;;;;5073625;28;20401;-69
2023/05/13 01:11:40;;;;;;;11.45;9.98;;;;;;;;;;5063149;28;20348;-69
2023/05/13 01:14:21;;;;;;;10.15;8.93;;;;;;;;;;5073670;28;20057;-69
2023/05/13 01:16:54;;;;;;;10.57;9.48;;;;;;;;;;5062339;28;20048;-69
2023/05/13 01:19:44;;;;;;;10.05;9.05;;;;;;;;;;5072682;28;20167;-69
2023/05/13 01:22:11;;;;;;;10.85;9.73;;;;;;;;;;5044636;28;20522;-69
2023/05/13 01:24:37;;;;;;;11.10;10.00;;;;;;;;;;5073579;28;20062;-69
2023/05/13 01:27:04;;;;;;;10.35;9.32;;;;;;;;;;5060638;28;20036;-69
2023/05/13 01:29:30;;;;;;;11.33;10.20;;;;;;;;;;5073028;28;20135;-69
2023/05/13 01:31:57;;;;;;;10.88;9.52;;;;;;;;;;5047444;28;20052;-69
2023/05/13 01:34:24;;;;;;;11.40;9.85;;;;;;;;;;5072898;28;20044;-69
2023/05/13 01:36:51;;;;;;;12.23;11.00;;;;;;;;;;5058144;28;20057;-69
2023/05/13 01:39:18;;;;;;;11.50;10.32;;;;;;;;;;5073772;28;20040;-69
2023/05/13 01:41:44;;;;;;;10.02;9.13;;;;;;;;;;5046203;28;20053;-68
2023/05/13 01:44:11;;;;;;;13.10;9.77;;;;;;;;;;5072686;28;20516;-69
2023/05/13 01:46:37;;;;;;;10.20;9.20;;;;;;;;;;5069937;28;20049;-69
2023/05/13 01:49:06;;;;;;;11.15;9.02;;;;;;;;;;5075139;28;20041;-69
2023/05/13 01:51:32;;;;;;;10.27;9.27;;;;;;;;;;5070327;28;20076;-68
2023/05/13 01:54:00;;;;;;;10.82;8.85;;;;;;;;;;5074327;28;20052;-68
2023/05/13 01:56:26;;;;;;;10.35;9.13;;;;;;;;;;5070440;28;20131;-69
2023/05/13 01:58:52;;;;;;;10.40;9.30;;;;;;;;;;5074856;28;20087;-69
2023/05/13 02:01:19;;;;;;;10.40;9.40;;;;;;;;;;5062994;28;20095;-68
2023/05/13 02:03:48;;;;;;;10.30;9.30;;;;;;;;;;5071777;28;20049;-68
2023/05/13 02:06:15;;;;;;;10.23;9.17;;;;;;;;;;5064382;28;20064;-68
2023/05/13 02:08:42;;;;;;;12.63;9.13;;;;;;;;;;5069944;28;20355;-68
2023/05/13 02:11:08;;;;;;;10.98;9.63;;;;;;;;;;5072182;28;20044;-68
2023/05/13 02:13:34;;;;;;;10.38;9.35;;;;;;;;;;5074183;28;20123;-68
2023/05/13 02:16:02;;;;;;;10.25;9.30;;;;;;;;;;5071460;28;20049;-68
2023/05/13 02:18:28;;;;;;;11.88;10.68;;;;;;;;;;5073671;28;20377;-68
2023/05/13 02:20:56;;;;;;;12.13;10.00;;;;;;;;;;5068517;28;20044;-68
2023/05/13 02:23:22;;;;;;;10.25;9.07;;;;;;;;;;5073926;28;20412;-69
2023/05/13 02:25:49;;;;;;;10.65;9.30;;;;;;;;;;5066860;28;20079;-68
2023/05/13 02:28:15;;;;;;;10.10;9.20;;;;;;;;;;5073726;28;20135;-68
2023/05/13 02:30:42;;;;;;;9.98;8.95;;;;;;;;;;5068522;28;20045;-69
2023/05/13 02:33:08;;;;;;;11.05;9.98;;;;;;;;;;5073764;28;20044;-69
2023/05/13 02:35:35;;;;;;;11.43;9.20;;;;;;;;;;5068479;28;20131;-68
2023/05/13 02:38:03;;;;;;;10.43;9.40;;;;;;;;;;5066340;28;20052;-69
2023/05/13 02:40:29;;;;;;;11.23;10.02;;;;;;;;;;5066966;28;20102;-69
2023/05/13 02:42:56;;;;;;;12.75;10.30;;;;;;;;;;5065016;28;20056;-69
2023/05/13 02:45:22;;;;;;;10.25;9.15;;;;;;;;;;5067284;28;20056;-69
2023/05/13 02:47:49;;;;;;;10.52;9.50;;;;;;;;;;5069444;28;20423;-69
2023/05/13 02:50:15;;;;;;;11.15;10.02;;;;;;;;;;5070802;28;20458;-69
2023/05/13 02:52:42;;;;;;;10.77;9.60;;;;;;;;;;5064481;28;20056;-69
2023/05/13 02:55:08;;;;;;;10.60;9.48;;;;;;;;;;5072955;28;20047;-69
2023/05/13 02:57:36;;;;;;;10.90;9.50;;;;;;;;;;5061828;28;20067;-69
2023/05/13 03:00:03;;;;;;;;;;;;;;;;;;5073087;28;20403;-69
2023/05/13 03:02:30;;;;;;;11.18;9.98;;;;;;;;;;5064690;28;20283;-69
2023/05/13 03:04:57;;;;;;;11.20;10.03;;;;;;;;;;5073153;28;20500;-69
2023/05/13 03:07:23;;;;;;;11.50;10.30;;;;;;;;;;5055918;28;20784;-69
2023/05/13 03:09:50;;;;;;;12.68;10.35;;;;;;;;;;5072707;28;20045;-69
2023/05/13 03:12:16;;;;;;;11.60;10.27;;;;;;;;;;5061839;28;20045;-69
2023/05/13 03:14:43;;;;;;;12.35;11.02;;;;;;;;;;5073115;28;20045;-69
2023/05/13 03:17:10;;;;;;;12.27;10.65;;;;;;;;;;5061362;28;20163;-69
2023/05/13 03:19:37;;;;;;;10.65;9.65;;;;;;;;;;5073205;28;20573;-69
2023/05/13 03:22:04;;;;;;;10.97;9.93;;;;;;;;;;5059973;28;20045;-70
2023/05/13 03:24:30;;;;;;;10.75;9.65;;;;;;;;;;5072884;28;20373;-69
2023/05/13 03:26:57;;;;;;;11.25;10.13;;;;;;;;;;5048584;28;20050;-69
2023/05/13 03:29:23;;;;;;;10.65;9.63;;;;;;;;;;5072535;28;20037;-69
2023/05/13 03:31:51;;;;;;;11.30;10.18;;;;;;;;;;5058520;28;20049;-69
2023/05/13 03:34:17;;;;;;;11.98;10.45;;;;;;;;;;5072630;28;20503;-69
2023/05/13 03:36:44;;;;;;;12.10;10.80;;;;;;;;;;5057825;28;20052;-69
2023/05/13 03:39:10;;;;;;;12.20;11.02;;;;;;;;;;5072977;28;20052;-69
2023/05/13 03:41:36;;;;;;;13.55;11.90;;;;;;;;;;5059073;28;20055;-69
2023/05/13 03:44:03;;;;;;;12.80;11.30;;;;;;;;;;5070545;28;20040;-69
2023/05/13 03:46:29;;;;;;;12.02;10.90;;;;;;;;;;5067991;28;20044;-69
2023/05/13 03:48:56;;;;;;;13.07;11.55;;;;;;;;;;5071929;28;20052;-71
2023/05/13 03:51:22;;;;;;;12.48;11.18;;;;;;;;;;5067981;28;20049;-69
2023/05/13 03:53:49;;;;;;;13.45;11.23;;;;;;;;;;5072181;28;20045;-69
2023/05/13 03:56:15;;;;;;;12.85;11.50;;;;;;;;;;5066426;28;20135;-69
2023/05/13 03:58:41;;;;;;;11.30;10.20;;;;;;;;;;5071246;28;20070;-69
2023/05/13 04:01:08;;;;;;;11.77;10.68;;;;;;;;;;5066207;28;20050;-69
2023/05/13 04:03:34;;;;;;;11.73;10.63;;;;;;;;;;5071757;28;20180;-69
2023/05/13 04:06:01;;;;;;;11.85;10.65;;;;;;;;;;5064691;28;20135;-69
2023/05/13 04:08:27;;;;;;;11.93;10.73;;;;;;;;;;5072121;28;20050;-69
2023/05/13 04:10:55;;;;;;;12.15;10.85;;;;;;;;;;5064248;28;20127;-69
2023/05/13 04:13:21;;;;;;;12.10;11.00;;;;;;;;;;5071837;28;20186;-69
2023/05/13 04:15:48;;;;;;;13.18;11.40;;;;;;;;;;5065109;28;20048;-69
2023/05/13 04:18:14;;;;;;;12.95;11.65;;;;;;;;;;5070834;28;20059;-69
2023/05/13 04:20:41;;;;;;;12.75;11.45;;;;;;;;;;5062393;28;20056;-69
2023/05/13 04:23:07;;;;;;;12.80;11.48;;;;;;;;;;5065212;28;20135;-69
2023/05/13 04:25:34;;;;;;;13.07;11.60;;;;;;;;;;5063267;28;20049;-69
2023/05/13 04:28:00;;;;;;;13.30;11.90;;;;;;;;;;5061828;28;20131;-69
2023/05/13 04:30:27;;;;;;;13.80;12.40;;;;;;;;;;5067482;28;20091;-69
2023/05/13 04:32:53;;;;;;;13.57;11.70;;;;;;;;;;5064404;28;20063;-69
2023/05/13 04:35:20;;;;;;;12.90;11.60;;;;;;;;;;5068242;28;20060;-69
2023/05/13 04:37:46;;;;;;;12.63;11.43;;;;;;;;;;5063480;28;20048;-69
2023/05/13 04:40:13;;;;;;;12.77;11.50;;;;;;;;;;5069903;28;20058;-69
2023/05/13 04:42:39;;;;;;;12.82;11.50;;;;;;;;;;5050075;28;20056;-68
2023/05/13 04:45:06;;;;;;;12.40;11.13;;;;;;;;;;5070478;28;20060;-69
2023/05/13 04:47:34;;;;;;;12.48;11.25;;;;;;;;;;5067660;28;20053;-69
2023/05/13 04:50:00;;;;;;;13.23;11.55;;;;;;;;;;5071057;28;20044;-69
2023/05/13 04:52:27;;;;;;;12.43;11.23;;;;;;;;;;5064933;28;20048;-69
2023/05/13 04:54:54;;;;;;;13.27;11.88;;;;;;;;;;5071394;28;20052;-69
2023/05/13 04:57:20;;;;;;;13.05;11.77;;;;;;;;;;5063261;28;20502;-69
2023/05/13 04:59:46;;;;;;;12.95;11.60;;;;;;;;;;5071851;28;20051;-69
2023/05/13 05:02:13;;;;;;;13.52;12.23;;;;;;;;;;5064936;28;20080;-69
2023/05/13 05:04:39;;;;;;;14.45;12.98;;;;;;;;;;5071134;28;20053;-69
2023/05/13 05:07:05;;;;;;;15.18;12.93;;;;;;;;;;5064037;28;20048;-69
2023/05/13 05:09:32;;;;;;;13.48;12.07;;;;;;;;;;5070452;28;20543;-69
2023/05/13 05:11:58;;;;;;;13.77;12.32;;;;;;;;;;5063313;28;20051;-68
2023/05/13 05:14:25;;;;;;;14.70;12.88;;;;;;;;;;5071117;28;20045;-68
2023/05/13 05:16:51;;;;;;;14.00;12.60;;;;;;;;;;5056315;28;20051;-68
2023/05/13 05:19:22;;;;;;;14.65;13.15;;;;;;;;;;5071333;28;20504;-68
2023/05/13 05:21:50;;;;;;;13.90;12.50;;;;;;;;;;5061124;28;20080;-69
2023/05/13 05:24:16;;;;;;;13.73;12.43;;;;;;;;;;5071066;28;20052;-69
2023/05/13 05:26:43;;;;;;;14.35;12.43;;;;;;;;;;5060646;28;20055;-69
2023/05/13 05:29:09;;;;;;;14.80;13.20;;;;;;;;;;5070580;28;20041;-69
2023/05/13 05:31:36;;;;;;;15.52;12.65;;;;;;;;;;5050671;28;20800;-69
2023/05/13 05:34:02;;;;;;;15.57;13.68;;;;;;;;;;5070528;28;20054;-69
2023/05/13 05:36:29;;;;;;;14.13;12.05;;;;;;;;;;5059008;28;20060;-69
2023/05/13 05:38:55;;;;;;;13.85;12.40;;;;;;;;;;5071244;28;20409;-68
2023/05/13 05:41:21;;;;;;;14.35;12.85;;;;;;;;;;5059429;28;20136;-69
2023/05/13 05:43:48;;;;;;;13.52;12.25;;;;;;;;;;5069858;28;20585;-68
2023/05/13 05:46:15;;;;;;;13.85;12.43;;;;;;;;;;5066873;28;20045;-68
2023/05/13 05:48:41;;;;;;;14.45;11.68;;;;;;;;;;5070620;28;20492;-68
2023/05/13 05:51:08;;;;;;;13.93;12.43;;;;;;;;;;5066290;28;20505;-68
2023/05/13 05:53:36;;;;;;;13.20;11.88;;;;;;;;;;5071040;28;20076;-69
2023/05/13 05:56:03;;;;;;;13.77;12.15;;;;;;;;;;5069434;28;20128;-69
2023/05/13 05:58:29;;;;;;;13.50;11.75;;;;;;;;;;5075295;28;20131;-69
2023/05/13 06:00:57;;;;;;;12.55;11.35;;;;;;;;;;5068137;28;20049;-69
2023/05/13 06:03:23;;;;;;;13.15;11.95;;;;;;;;;;5074365;28;20106;-69
2023/05/13 06:05:50;;;;;;;11.93;10.75;;;;;;;;;;5067457;28;20559;-69
2023/05/13 06:08:16;;;;;;;12.63;10.85;;;;;;;;;;5073835;28;20616;-68
2023/05/13 06:10:43;;;;;;;12.75;11.50;;;;;;;;;;5064014;28;20049;-69
2023/05/13 06:13:09;;;;;;;12.10;10.52;;;;;;;;;;5071275;28;20132;-68
2023/05/13 06:15:39;;;;;;;12.10;10.85;;;;;;;;;;5065734;28;20064;-68
2023/05/13 06:18:05;;;;;;;12.07;10.88;;;;;;;;;;5069323;28;20055;-69
2023/05/13 06:20:32;;;;;;;12.25;11.02;;;;;;;;;;5069637;28;20056;-69
2023/05/13 06:22:58;;;;;;;11.65;10.55;;;;;;;;;;5069482;28;20080;-69
2023/05/13 06:25:24;;;;;;;12.02;10.85;;;;;;;;;;5069138;28;20075;-69
2023/05/13 06:27:51;;;;;;;12.50;11.27;;;;;;;;;;5059761;28;20140;-69
2023/05/13 06:30:17;;;;;;;11.80;10.63;;;;;;;;;;5071109;28;20044;-68
2023/05/13 06:32:44;;;;;;;12.52;11.23;;;;;;;;;;5064603;28;20499;-69
2023/05/13 06:35:27;;;;;;;12.52;11.23;;;;;;;;;;5069748;28;20493;-69
2023/05/13 06:37:53;;;;;;;11.77;10.68;;;;;;;;;;5066093;28;20056;-68
2023/05/13 06:40:20;;;;;;;12.35;11.05;;;;;;;;;;5069937;28;20492;-68
2023/05/13 06:42:47;;;;;;;12.80;11.40;;;;;;;;;;5069943;28;20048;-69
2023/05/13 06:45:13;;;;;;;12.30;11.10;;;;;;;;;;5069967;28;20040;-69
2023/05/13 06:47:40;;;;;;;12.50;11.30;;;;;;;;;;5071868;28;20070;-68
2023/05/13 06:50:06;;;;;;;11.90;10.70;;;;;;;;;;5072811;28;20044;-68
2023/05/13 06:52:33;;;;;;;12.05;10.85;;;;;;;;;;5069770;28;20550;-69
2023/05/13 06:55:00;;;;;;;12.52;11.35;;;;;;;;;;5072637;28;20139;-69
2023/05/13 06:57:26;;;;;;;11.85;10.75;;;;;;;;;;5065768;28;20063;-69
2023/05/13 07:00:07;;;;;;;13.05;11.63;;;;;;;;;;5072923;28;20114;-69
2023/05/13 07:02:34;;;;;;;14.57;12.13;;;;;;;;;;5064488;28;20143;-69
2023/05/13 07:05:00;;;;;;;16.17;13.18;;;;;;;;;;5072673;28;20136;-69
2023/05/13 07:07:27;;;;;;;13.80;12.50;;;;;;;;;;5047398;28;20045;-69
2023/05/13 07:09:53;;;;;;;14.05;12.70;;;;;;;;;;5065871;28;20450;-69
2023/05/13 07:12:20;;;;;;;13.13;11.82;;;;;;;;;;5072705;28;20044;-66
2023/05/13 07:14:46;;;;;;;13.13;11.93;;;;;;;;;;5073023;28;20052;-68
2023/05/13 07:17:12;;;;;;;12.88;11.57;;;;;;;;;;5069629;28;20067;-68
2023/05/13 07:19:39;;;;;;;13.48;12.10;;;;;;;;;;5061255;28;20054;-68
2023/05/13 07:22:05;;;;;;;13.73;12.20;;;;;;;;;;5070802;28;20067;-68
2023/05/13 07:24:32;;;;;;;18.42;11.90;;;;;;;;;;5072777;28;20107;-67
2023/05/13 07:27:00;;;;;;;12.43;11.10;;;;;;;;;;5072527;28;20056;-64
2023/05/13 07:29:26;;;;;;;;;;;;;;;;;;5068380;28;20066;-65
2023/05/13 07:31:52;;;;;;;13.85;11.10;;;;;;;;;;5052690;28;19931;-65
2023/05/13 07:34:19;;;;;;;11.57;10.48;;;;;;;;;;5051425;28;20139;-65
2023/05/13 07:36:45;;;;;;;12.00;10.80;;;;;;;;;;5052001;28;20048;-65
2023/05/13 07:39:12;;;;;;;11.30;10.20;;;;;;;;;;5052040;28;20483;-68
2023/05/13 07:41:38;;;;;;;11.77;10.40;;;;;;;;;;5065336;28;20056;-63
2023/05/13 07:44:10;;;;;;;11.07;10.02;;;;;;;;;;5063720;28;20080;-63
2023/05/13 07:46:36;;;;;;;11.73;10.63;;;;;;;;;;5062137;28;20070;-64
2023/05/13 07:49:05;;;;;;;11.68;10.43;;;;;;;;;;5059465;28;20057;-64
2023/05/13 07:51:32;;;;;;;10.80;9.80;;;;;;;;;;5070423;28;20053;-64
2023/05/13 07:53:59;;;;;;;11.48;10.43;;;;;;;;;;5072116;28;20055;-64
2023/05/13 07:56:26;;;;;;;10.43;9.40;;;;;;;;;;5057327;28;20135;-64
2023/05/13 07:58:52;;;;;;;10.68;9.65;;;;;;;;;;5071869;28;20281;-64
2023/05/13 08:01:19;;;;;;;11.15;10.00;;;;;;;;;;5061855;28;20059;-66
2023/05/13 08:03:45;;;;;;;11.53;10.43;;;;;;;;;;5054218;28;20576;-67
2023/05/13 08:06:12;;;;;;;11.80;10.70;;;;;;;;;;5056828;28;20055;-65
2023/05/13 08:08:38;;;;;;;12.82;11.57;;;;;;;;;;5052641;28;20053;-65
2023/05/13 08:11:05;;;;;;;11.38;10.18;;;;;;;;;;5051252;28;20057;-66
2023/05/13 08:13:31;;;;;;;11.07;9.98;;;;;;;;;;5054115;28;20047;-65
2023/05/13 08:16:02;;;;;;;11.38;10.27;;;;;;;;;;5051103;28;20048;-64
2023/05/13 08:18:29;;;;;;;12.07;10.77;;;;;;;;;;5061484;28;20081;-63
2023/05/13 08:20:56;;;;;;;12.27;11.00;;;;;;;;;;5063205;28;20061;-66
2023/05/13 08:23:24;;;;;;;12.38;11.23;;;;;;;;;;5069452;28;20044;-66
2023/05/13 08:26:09;;;;;;;11.30;10.13;;;;;;;;;;5037317;28;20065;-66
2023/05/13 08:28:35;;;;;;;11.57;10.55;;;;;;;;;;5051480;28;20057;-66
2023/05/13 08:31:02;;;;;;;12.60;11.17;;;;;;;;;;5050130;28;20049;-66
2023/05/13 08:33:29;;;;;;;12.25;11.05;;;;;;;;;;5051507;28;20282;-66
2023/05/13 08:35:56;;;;;;;13.45;11.40;;;;;;;;;;5051585;28;20053;-66
2023/05/13 08:38:22;;;;;;;12.30;11.07;;;;;;;;;;5051406;28;20052;-67
2023/05/13 08:40:49;;;;;;;11.82;10.82;;;;;;;;;;5051413;28;20045;-66
2023/05/13 08:43:15;;;;;;;11.00;10.10;;;;;;;;;;5051360;28;20049;-64
2023/05/13 08:45:44;;;;;;;12.17;11.00;;;;;;;;;;5053708;28;20080;-65
2023/05/13 08:48:12;;;;;;;12.73;10.68;;;;;;;;;;5071306;28;20576;-66
2023/05/13 08:50:38;;;;;;;12.88;11.48;;;;;;;;;;5071088;28;20539;-63
2023/05/13 08:53:05;;;;;;;12.73;11.53;;;;;;;;;;5051023;28;20142;-63
2023/05/13 08:55:32;;;;;;;12.73;11.40;;;;;;;;;;5050735;28;20400;-63
2023/05/13 08:57:58;;;;;;;12.10;10.90;;;;;;;;;;5056076;28;20052;-63
2023/05/13 09:00:25;;;;;;;12.82;11.63;;;;;;;;;;5071434;28;20056;-63
2023/05/13 09:02:51;;;;;;;13.05;11.45;;;;;;;;;;5054916;28;20457;-63
2023/05/13 09:05:19;;;;;;;12.15;10.85;;;;;;;;;;5059347;28;20468;-63
2023/05/13 09:07:46;;;;;;;12.25;11.15;;;;;;;;;;5068524;28;20053;-66
2023/05/13 09:10:12;;;;;;;13.13;11.93;;;;;;;;;;5050550;28;20045;-64
2023/05/13 09:12:52;;;;;;;12.18;10.98;;;;;;;;;;5050625;28;20049;-64
2023/05/13 09:15:23;;;;;;;11.85;10.75;;;;;;;;;;5050644;28;20079;-63
2023/05/13 09:17:52;;;;;;;12.27;10.98;;;;;;;;;;5050743;28;20049;-65
2023/05/13 09:20:19;;;;;;;12.63;11.43;;;;;;;;;;5050651;28;20055;-63
2023/05/13 09:22:46;;;;;;;11.52;10.43;;;;;;;;;;5063691;28;20064;-63
2023/05/13 09:25:13;;;;;;;11.90;10.80;;;;;;;;;;5071093;28;20059;-63
2023/05/13 09:27:41;;;;;;;11.13;10.13;;;;;;;;;;5071566;28;20580;-66
2023/05/13 09:30:07;;;;;;;11.85;10.63;;;;;;;;;;5054464;28;20051;-64
2023/05/13 09:32:34;;;;;;;10.00;9.10;;;;;;;;;;5054917;28;20041;-63
2023/05/13 09:35:10;;;;;;;9.88;8.98;;;;;;;;;;5053903;28;20393;-63
2023/05/13 09:37:36;;;;;;;9.35;8.55;;;;;;;;;;5054406;28;20067;-63
2023/05/13 09:40:03;;;;;;;10.00;9.00;;;;;;;;;;5054440;28;20053;-63
2023/05/13 09:42:31;;;;;;;10.60;9.50;;;;;;;;;;5045736;28;20287;-63
2023/05/13 09:45:02;;;;;;;10.35;9.35;;;;;;;;;;5057311;28;20049;-63
2023/05/13 09:47:29;;;;;;;9.23;8.43;;;;;;;;;;5062433;28;20142;-63
2023/05/13 09:49:56;;;;;;;9.55;8.60;;;;;;;;;;5061053;28;20425;-63
2023/05/13 09:52:22;;;;;;;11.07;9.18;;;;;;;;;;5052822;28;20409;-63
2023/05/13 09:54:49;;;;;;;9.52;8.73;;;;;;;;;;5054359;28;20048;-64
2023/05/13 09:57:15;;;;;;;9.95;8.98;;;;;;;;;;5054419;28;20049;-64
2023/05/13 09:59:42;;;;;;;9.68;8.77;;;;;;;;;;5054200;28;20520;-64
2023/05/13 10:02:10;;;;;;;9.00;8.13;;;;;;;;;;5054092;28;20492;-64
2023/05/13 10:04:37;;;;;;;12.10;9.35;;;;;;;;;;5053812;28;20056;-64
2023/05/13 10:07:04;;;;;;;9.80;8.90;;;;;;;;;;5052127;28;20080;-63
2023/05/13 10:09:35;;;;;;;10.32;9.32;;;;;;;;;;5054062;28;20065;-63
2023/05/13 10:12:02;;;;;;;10.68;9.70;;;;;;;;;;5054050;28;20049;-64
2023/05/13 10:14:29;;;;;;;10.85;9.75;;;;;;;;;;5054087;28;20167;-64
2023/05/13 10:16:57;;;;;;;11.35;9.82;;;;;;;;;;5054167;28;20076;-64
2023/05/13 10:19:24;;;;;;;10.25;9.27;;;;;;;;;;5038771;28;20060;-63
2023/05/13 10:21:51;;;;;;;10.32;9.40;;;;;;;;;;5053947;28;20079;-64
2023/05/13 10:24:18;;;;;;;10.07;9.13;;;;;;;;;;5054049;28;20143;-64
2023/05/13 10:26:44;;;;;;;9.80;8.90;;;;;;;;;;5053730;28;20282;-63
2023/05/13 10:29:11;;;;;;;10.18;8.95;;;;;;;;;;5053554;28;20404;-64
2023/05/13 10:31:38;;;;;;;11.03;9.87;;;;;;;;;;5053504;28;20405;-63
2023/05/13 10:34:04;;;;;;;11.23;10.10;;;;;;;;;;5053519;28;20781;-63
2023/05/13 10:36:52;;;;;;;9.80;8.90;;;;;;;;;;5053712;28;20132;-64
2023/05/13 10:39:41;;;;;;;8.75;8.05;;;;;;;;;;5052739;28;20504;-64
2023/05/13 10:42:26;;;;;;;9.02;8.13;;;;;;;;;;5053352;28;20136;-64
2023/05/13 10:44:56;;;;;;;8.52;7.72;;;;;;;;;;5053677;28;20052;-63
2023/05/13 10:47:23;;;;;;;8.60;7.85;;;;;;;;;;5053480;28;20052;-64
2023/05/13 10:49:51;;;;;;;10.70;9.73;;;;;;;;;;5052185;28;20079;-63
2023/05/13 10:52:17;;;;;;;9.52;8.57;;;;;;;;;;5053424;28;20278;-64
2023/05/13 10:54:55;;;;;;;9.87;8.90;;;;;;;;;;5071054;28;20066;-64
2023/05/13 10:57:35;;;;;;;10.43;9.43;;;;;;;;;;5073408;28;20274;-64
2023/05/13 11:00:14;;;;;;;10.00;9.02;;;;;;;;;;5073055;28;20040;-64
2023/05/13 11:02:41;;;;;;;9.45;8.52;;;;;;;;;;5073400;28;20057;-64
2023/05/13 11:05:08;;;;;;;7.90;7.20;;;;;;;;;;5072651;28;20057;-64
2023/05/13 11:07:38;;;;;;;16.10;7.93;;;;;;;;;;5064527;28;20135;-63
2023/05/13 11:10:23;;;;;;;9.32;8.48;;;;;;;;;;5056922;28;20058;-65
2023/05/13 11:13:19;;;;;;;10.98;8.25;;;;;;;;;;5072832;28;20081;-64
2023/05/13 11:15:53;;;;;;;9.65;8.65;;;;;;;;;;5073092;28;20465;-64
2023/05/13 11:18:27;;;;;;;8.35;7.65;;;;;;;;;;5072956;28;20099;-64
2023/05/13 11:20:55;;;;;;;11.35;8.50;;;;;;;;;;5072972;28;20079;-65
2023/05/13 11:23:21;;;;;;;13.35;8.48;;;;;;;;;;5072837;28;20053;-65
2023/05/13 11:26:06;;;;;;;8.25;7.55;;;;;;;;;;5072579;28;20511;-64
2023/05/13 11:28:56;;;;;;;8.85;7.95;;;;;;;;;;5058556;28;20056;-65
2023/05/13 11:31:24;;;;;;;8.80;7.80;;;;;;;;;;5072118;28;20049;-65
2023/05/13 11:34:09;;;;;;;28.67;23.23;;;;;;;;;;5072350;28;20515;-65
2023/05/13 11:36:36;;;;;;;9.38;8.57;;;;;;;;;;5072614;28;20127;-66
2023/05/13 11:39:06;;;;;;;9.43;8.52;;;;;;;;;;5059316;28;20214;-63
2023/05/13 11:41:32;;;;;;;7.72;7.13;;;;;;;;;;5060562;28;20424;-64
2023/05/13 11:44:02;;;;;;;7.80;7.07;;;;;;;;;;5072067;28;20056;-65
2023/05/13 11:46:28;;;;;;;7.70;6.97;;;;;;;;;;5068041;28;20087;-65
2023/05/13 11:48:55;;;;;;;7.72;6.97;;;;;;;;;;5063450;28;20057;-64
2023/05/13 11:51:22;;;;;;;10.23;7.18;;;;;;;;;;5050716;28;20081;-67
2023/05/13 11:53:48;;;;;;;6.82;6.18;;;;;;;;;;5051346;28;20489;-66
2023/05/13 11:56:15;;;;;;;6.80;6.30;;;;;;;;;;5064270;28;20062;-66
2023/05/13 11:58:42;;;;;;;7.53;6.72;;;;;;;;;;5064329;28;20045;-65
2023/05/13 12:01:12;;;;;;;6.90;6.30;;;;;;;;;;5065638;28;20144;-66
2023/05/13 12:03:39;;;;;;;7.90;7.10;;;;;;;;;;5071690;28;20566;-65
2023/05/13 12:06:05;;;;;;;7.57;6.90;;;;;;;;;;5072066;28;20052;-65
2023/05/13 12:08:32;;;;;;;7.80;7.10;;;;;;;;;;5061977;28;20124;-65
2023/05/13 12:10:58;;;;;;;7.75;7.15;;;;;;;;;;5065575;28;20056;-65
2023/05/13 12:13:25;;;;;;;7.65;7.00;;;;;;;;;;5069928;28;20040;-67
2023/05/13 12:15:52;;;;;;;7.95;7.35;;;;;;;;;;5051768;28;20059;-66
2023/05/13 12:18:18;;;;;;;8.30;7.25;;;;;;;;;;5051306;28;20049;-65
2023/05/13 12:20:45;;;;;;;7.93;7.13;;;;;;;;;;5070943;28;20051;-66
2023/05/13 12:23:11;;;;;;;6.85;6.10;;;;;;;;;;5067667;28;20045;-67
2023/05/13 12:25:38;;;;;;;;;;;;;;;;;;5061555;28;20614;-66
2023/05/13 12:28:15;;;;;;;6.82;6.20;;;;;;;;;;5062554;28;19924;-64
2023/05/13 12:30:52;;;;;;;6.80;6.20;;;;;;;;;;5051221;28;20045;-64
2023/05/13 12:33:20;;;;;;;6.45;5.95;;;;;;;;;;5051435;28;20136;-64
2023/05/13 12:36:06;;;;;;;7.07;6.47;;;;;;;;;;5051583;28;20053;-64
2023/05/13 12:38:33;;;;;;;7.03;6.53;;;;;;;;;;5043935;28;20053;-65
2023/05/13 12:41:09;;;;;;;6.88;6.38;;;;;;;;;;5051548;28;20049;-65
2023/05/13 12:43:36;;;;;;;7.05;6.45;;;;;;;;;;5051387;28;20053;-64
2023/05/13 12:46:04;;;;;;;7.40;6.80;;;;;;;;;;5056513;28;20072;-65
2023/05/13 12:48:34;;;;;;;6.97;6.47;;;;;;;;;;5071075;28;20496;-64
2023/05/13 12:51:00;;;;;;;6.80;6.20;;;;;;;;;;5043223;28;20136;-64
2023/05/13 12:53:28;;;;;;;6.90;6.40;;;;;;;;;;5071386;28;20049;-64
2023/05/13 12:55:54;;;;;;;7.75;7.05;;;;;;;;;;5071163;28;20040;-64
2023/05/13 12:58:21;;;;;;;6.75;6.25;;;;;;;;;;5071382;28;20082;-65
2023/05/13 13:00:47;;;;;;;6.75;6.18;;;;;;;;;;5071344;28;20407;-64
2023/05/13 13:03:14;;;;;;;6.72;6.22;;;;;;;;;;5070732;28;20201;-65
2023/05/13 13:05:40;;;;;;;7.47;6.80;;;;;;;;;;5071363;28;20125;-64
2023/05/13 13:08:07;;;;;;;6.53;6.03;;;;;;;;;;5069167;28;20047;-64
2023/05/13 13:10:33;;;;;;;7.32;6.57;;;;;;;;;;5071177;28;20053;-64
2023/05/13 13:13:00;;;;;;;7.18;6.60;;;;;;;;;;5071137;28;20044;-64
2023/05/13 13:15:26;;;;;;;7.60;6.85;;;;;;;;;;5070897;28;20088;-64
2023/05/13 13:17:53;;;;;;;7.55;6.85;;;;;;;;;;5070988;28;20041;-64
2023/05/13 13:20:19;;;;;;;7.18;6.68;;;;;;;;;;5071060;28;20054;-64
2023/05/13 13:22:46;;;;;;;6.63;6.13;;;;;;;;;;5070966;28;20156;-64
2023/05/13 13:25:13;;;;;;;7.88;7.18;;;;;;;;;;5070729;28;20492;-64
2023/05/13 13:27:39;;;;;;;7.43;6.82;;;;;;;;;;5070760;28;20066;-64
2023/05/13 13:30:06;;;;;;;7.63;6.15;;;;;;;;;;5070676;28;20048;-64
2023/05/13 13:32:34;;;;;;;6.50;6.00;;;;;;;;;;5070907;28;20106;-64
2023/05/13 13:35:02;;;;;;;6.53;6.03;;;;;;;;;;5070924;28;20054;-64
2023/05/13 13:37:29;;;;;;;6.30;5.80;;;;;;;;;;5070866;28;20084;-64
2023/05/13 13:39:56;;;;;;;6.60;6.10;;;;;;;;;;5070751;28;20131;-64
2023/05/13 13:42:22;;;;;;;6.50;6.00;;;;;;;;;;5070925;28;20048;-64
2023/05/13 13:44:53;;;;;;;8.60;6.25;;;;;;;;;;5058439;28;20056;-64
2023/05/13 13:47:20;;;;;;;7.00;6.40;;;;;;;;;;5066682;28;20048;-64
2023/05/13 13:49:47;;;;;;;7.07;6.57;;;;;;;;;;5070939;28;20407;-65
2023/05/13 13:52:13;;;;;;;7.65;6.95;;;;;;;;;;5070423;28;20049;-65
2023/05/13 13:54:39;;;;;;;7.47;6.78;;;;;;;;;;5070552;28;20052;-65
2023/05/13 13:57:06;;;;;;;7.25;6.65;;;;;;;;;;5049933;28;20045;-65
2023/05/13 13:59:32;;;;;;;7.00;6.50;;;;;;;;;;5050714;28;20053;-64
2023/05/13 14:01:58;;;;;;;6.47;5.97;;;;;;;;;;5050577;28;20049;-65
2023/05/13 14:04:26;;;;;;;7.03;6.53;;;;;;;;;;5050158;28;20475;-65
2023/05/13 14:06:54;;;;;;;5.97;5.38;;;;;;;;;;5048441;28;20040;-65
2023/05/13 14:09:20;;;;;;;7.07;6.20;;;;;;;;;;5050326;28;20515;-64
2023/05/13 14:11:47;;;;;;;7.43;6.82;;;;;;;;;;5053296;28;20575;-65
2023/05/13 14:14:13;;;;;;;7.28;6.70;;;;;;;;;;5056018;28;20053;-65
2023/05/13 14:16:39;;;;;;;7.35;6.85;;;;;;;;;;5053970;28;20053;-65
2023/05/13 14:19:06;;;;;;;6.90;6.30;;;;;;;;;;5054539;28;20059;-65
2023/05/13 14:21:34;;;;;;;6.72;6.22;;;;;;;;;;5054125;28;20423;-65
2023/05/13 14:24:00;;;;;;;7.57;6.97;;;;;;;;;;5053802;28;20060;-64
2023/05/13 14:26:28;;;;;;;7.22;6.72;;;;;;;;;;5059871;28;20044;-64
2023/05/13 14:28:55;;;;;;;7.50;7.00;;;;;;;;;;5053568;28;20049;-64
2023/05/13 14:31:21;;;;;;;7.10;6.60;;;;;;;;;;5053767;28;20140;-65